createdAt,value
2022-10-11T00:00:30.094Z,250
2022-10-11T00:05:30.100Z,232.5
2022-10-11T00:10:30.097Z,270
2022-10-11T00:15:30.099Z,42.5
2022-10-11T00:20:30.098Z,22.5
2022-10-11T00:25:30.106Z,345
2022-10-11T00:30:30.096Z,322.5
2022-10-11T00:35:30.102Z,277.5
2022-10-11T00:40:30.108Z,295
2022-10-11T00:45:30.109Z,332.5
2022-10-11T00:50:30.097Z,345
2022-10-11T00:55:30.102Z,357.5
2022-10-11T01:00:30.109Z,15
2022-10-11T01:05:30.633Z,330
2022-10-11T01:10:30.099Z,327.5
2022-10-11T01:15:30.108Z,320
2022-10-11T01:20:30.096Z,320
2022-10-11T01:25:30.106Z,320
2022-10-11T01:30:30.114Z,325
2022-10-11T01:35:30.100Z,330
2022-10-11T01:40:30.104Z,317.5
2022-10-11T01:45:30.097Z,325
2022-10-11T01:50:30.104Z,335
2022-10-11T01:55:30.111Z,335
2022-10-11T02:00:30.099Z,337.5
2022-10-11T02:05:30.102Z,335
2022-10-11T02:10:30.103Z,347.5
2022-10-11T02:15:30.113Z,345
2022-10-11T02:20:30.103Z,0
2022-10-11T02:25:30.092Z,350
2022-10-11T02:30:30.092Z,352.5
2022-10-11T02:35:30.101Z,342.5
2022-10-11T02:40:30.092Z,335
2022-10-11T02:45:30.101Z,357.5
2022-10-11T02:50:30.104Z,350
2022-10-11T02:55:30.104Z,350
2022-10-11T03:00:30.100Z,0
2022-10-11T03:05:30.104Z,352.5
2022-10-11T03:10:30.104Z,352.5
2022-10-11T03:15:30.103Z,357.5
2022-10-11T03:20:30.101Z,0
2022-10-11T03:25:30.107Z,12.5
2022-10-11T03:30:30.103Z,10
2022-10-11T03:35:30.103Z,355
2022-10-11T03:40:30.101Z,2.5
2022-10-11T03:45:30.090Z,2.5
2022-10-11T03:50:30.111Z,12.5
2022-10-11T03:55:30.097Z,357.5
2022-10-11T04:00:30.104Z,2.5
2022-10-11T04:05:30.096Z,0
2022-10-11T04:10:30.101Z,0
2022-10-11T04:15:30.097Z,355
2022-10-11T04:20:30.100Z,350
2022-10-11T04:25:30.100Z,342.5
2022-10-11T04:30:30.105Z,335
2022-10-11T04:35:30.104Z,350
2022-10-11T04:40:30.095Z,342.5
2022-10-11T04:45:30.102Z,340
2022-10-11T04:50:30.099Z,355
2022-10-11T04:55:30.102Z,2.5
2022-10-11T05:00:30.123Z,357.5
2022-10-11T05:05:30.105Z,345
2022-10-11T05:10:30.094Z,352.5
2022-10-11T05:15:30.094Z,342.5
2022-10-11T05:20:30.105Z,342.5
2022-10-11T05:25:30.103Z,350
2022-10-11T05:30:30.098Z,10
2022-10-11T05:35:30.120Z,15
2022-10-11T05:40:30.101Z,10
2022-10-11T05:45:30.099Z,12.5
2022-10-11T05:50:30.101Z,15
2022-10-11T05:55:30.122Z,5
2022-10-11T06:00:30.104Z,0
2022-10-11T06:05:30.113Z,5
2022-10-11T06:10:30.113Z,10
2022-10-11T06:15:30.104Z,10
2022-10-11T06:20:30.096Z,0
2022-10-11T06:25:30.114Z,12.5
2022-10-11T06:30:30.095Z,10
2022-10-11T06:35:30.100Z,15
2022-10-11T06:40:30.100Z,17.5
2022-10-11T06:45:30.100Z,12.5
2022-10-11T06:50:54.707Z,20
2022-10-11T06:55:30.120Z,15
2022-10-11T07:00:30.098Z,10
2022-10-11T07:05:30.099Z,25
2022-10-11T07:10:30.095Z,27.5
2022-10-11T07:15:30.131Z,25
2022-10-11T07:20:30.108Z,32.5
2022-10-11T07:25:30.102Z,32.5
2022-10-11T07:30:30.106Z,20
2022-10-11T07:35:30.105Z,17.5
2022-10-11T07:40:30.094Z,7.5
2022-10-11T07:45:30.100Z,27.5
2022-10-11T07:50:30.091Z,20
2022-10-11T07:55:30.109Z,20
2022-10-11T08:00:30.126Z,25
2022-10-11T08:05:30.104Z,22.5
2022-10-11T08:10:30.108Z,22.5
2022-10-11T08:15:30.106Z,22.5
2022-10-11T08:20:30.092Z,15
2022-10-11T08:25:30.099Z,30
2022-10-11T08:30:30.096Z,30
2022-10-11T08:35:30.105Z,17.5
2022-10-11T08:40:34.365Z,20
2022-10-11T08:45:30.108Z,15
2022-10-11T08:50:30.110Z,15
2022-10-11T08:55:30.095Z,30
2022-10-11T09:00:30.099Z,25
2022-10-11T09:05:30.093Z,17.5
2022-10-11T09:10:30.099Z,30
2022-10-11T09:15:30.098Z,20
2022-10-11T09:20:30.099Z,27.5
2022-10-11T09:25:30.110Z,17.5
2022-10-11T09:30:30.098Z,35
2022-10-11T09:35:30.126Z,12.5
2022-10-11T09:40:30.111Z,7.5
2022-10-11T09:45:30.131Z,10
2022-10-11T09:50:30.106Z,15
2022-10-11T09:55:30.114Z,17.5
2022-10-11T10:00:30.112Z,10
2022-10-11T10:05:30.123Z,2.5
2022-10-11T10:10:30.111Z,12.5
2022-10-11T10:15:30.146Z,22.5
2022-10-11T10:20:30.125Z,5
2022-10-11T10:25:30.110Z,5
2022-10-11T10:30:34.612Z,2.5
2022-10-11T10:35:30.109Z,12.5
2022-10-11T10:40:30.105Z,40
2022-10-11T10:45:30.099Z,15
2022-10-11T10:50:30.107Z,15
2022-10-11T10:55:30.117Z,20
2022-10-11T11:00:30.100Z,20
2022-10-11T11:05:30.107Z,17.5
2022-10-11T11:10:30.098Z,30
2022-10-11T11:15:33.032Z,25
2022-10-11T11:20:30.108Z,22.5
2022-10-11T11:25:30.108Z,50
2022-10-11T11:30:30.106Z,22.5
2022-10-11T11:35:30.108Z,30
2022-10-11T11:40:30.122Z,15
2022-10-11T11:45:30.114Z,20
2022-10-11T11:50:30.554Z,10
2022-10-11T11:55:30.105Z,17.5
2022-10-11T12:00:30.101Z,7.5
2022-10-11T12:05:30.111Z,25
2022-10-11T12:10:30.109Z,15
2022-10-11T12:15:30.099Z,20
2022-10-11T12:20:30.112Z,27.5
2022-10-11T12:25:30.204Z,22.5
2022-10-11T12:30:30.103Z,80
2022-10-11T12:35:30.110Z,32.5
2022-10-11T12:40:30.090Z,70
2022-10-11T12:45:30.102Z,22.5
2022-10-11T12:50:30.091Z,22.5
2022-10-11T12:55:30.108Z,65
2022-10-11T13:00:30.115Z,65
2022-10-11T13:05:30.098Z,17.5
2022-10-11T13:10:30.111Z,17.5
2022-10-11T13:15:30.112Z,32.5
2022-10-11T13:20:30.093Z,15
2022-10-11T13:25:30.128Z,17.5
2022-10-11T13:30:30.094Z,12.5
2022-10-11T13:35:30.108Z,357.5
2022-10-11T13:40:30.100Z,357.5
2022-10-11T13:45:30.100Z,12.5
2022-10-11T13:50:30.111Z,12.5
2022-10-11T13:55:30.104Z,12.5
2022-10-11T14:00:30.105Z,45
2022-10-11T14:05:30.115Z,35
2022-10-11T14:10:30.098Z,17.5
2022-10-11T14:15:30.102Z,22.5
2022-10-11T14:20:33.161Z,22.5
2022-10-11T14:25:30.108Z,32.5
2022-10-11T14:30:30.101Z,50
2022-10-11T14:35:30.112Z,10
2022-10-11T14:40:30.095Z,25
2022-10-11T14:45:30.104Z,7.5
2022-10-11T14:50:30.093Z,20
2022-10-11T14:55:30.102Z,15
2022-10-11T15:00:30.100Z,355
2022-10-11T15:05:33.842Z,0
2022-10-11T15:10:30.099Z,352.5
2022-10-11T15:15:30.106Z,357.5
2022-10-11T15:20:30.093Z,7.5
2022-10-11T15:25:30.100Z,357.5
2022-10-11T15:30:30.096Z,357.5
2022-10-11T15:35:30.094Z,12.5
2022-10-11T15:40:30.093Z,357.5
2022-10-11T15:45:30.113Z,10
2022-10-11T15:50:30.098Z,12.5
2022-10-11T15:55:30.098Z,2.5
2022-10-11T16:00:30.103Z,340
2022-10-11T16:05:30.098Z,342.5
2022-10-11T16:10:30.103Z,340
2022-10-11T16:15:30.099Z,315
2022-10-11T16:20:30.106Z,317.5
2022-10-11T16:25:30.105Z,315
2022-10-11T16:30:30.099Z,320
2022-10-11T16:35:32.475Z,320
2022-10-11T16:40:30.103Z,320
2022-10-11T16:45:30.100Z,325
2022-10-11T16:50:30.114Z,322.5
2022-10-11T16:55:30.098Z,312.5
2022-10-11T17:00:30.157Z,320
2022-10-11T17:05:30.105Z,315
2022-10-11T17:10:30.100Z,322.5
2022-10-11T17:15:30.109Z,320
2022-10-11T17:20:30.110Z,320
2022-10-11T17:25:30.103Z,315
2022-10-11T17:30:30.101Z,320
2022-10-11T17:35:30.098Z,320
2022-10-11T17:40:30.110Z,320
2022-10-11T17:45:30.109Z,320
2022-10-11T17:50:30.100Z,317.5
2022-10-11T17:55:30.117Z,315
2022-10-11T18:00:30.113Z,315
2022-10-11T18:05:30.116Z,315
2022-10-11T18:10:30.101Z,320
2022-10-11T18:15:30.114Z,320
2022-10-11T18:20:30.095Z,320
2022-10-11T18:25:30.099Z,310
2022-10-11T18:30:30.092Z,305
2022-10-11T18:35:30.102Z,302.5
2022-10-11T18:40:30.089Z,310
2022-10-11T18:45:30.098Z,310
2022-10-11T18:50:30.112Z,310
2022-10-11T18:55:30.101Z,317.5
2022-10-11T19:00:40.446Z,315
2022-10-11T19:05:30.098Z,320
2022-10-11T19:10:30.117Z,322.5
2022-10-11T19:15:30.095Z,355
2022-10-11T19:20:30.093Z,5
2022-10-11T19:25:30.097Z,2.5
2022-10-11T19:30:30.082Z,355
2022-10-11T19:35:30.107Z,0
2022-10-11T19:40:31.538Z,2.5
2022-10-11T19:45:30.099Z,5
2022-10-11T19:50:30.098Z,2.5
2022-10-11T19:55:30.100Z,10
2022-10-11T20:00:30.099Z,2.5
2022-10-11T20:05:30.110Z,2.5
2022-10-11T20:10:30.095Z,5
2022-10-11T20:15:30.098Z,0
2022-10-11T20:20:30.097Z,2.5
2022-10-11T20:25:30.097Z,5
2022-10-11T20:30:30.098Z,5
2022-10-11T20:35:30.105Z,7.5
2022-10-11T20:40:30.100Z,2.5
2022-10-11T20:45:30.098Z,5
2022-10-11T20:50:30.099Z,10
2022-10-11T20:55:30.092Z,7.5
2022-10-11T21:00:30.106Z,12.5
2022-10-11T21:05:30.106Z,7.5
2022-10-11T21:10:30.102Z,0
2022-10-11T21:15:30.095Z,5
2022-10-11T21:20:30.096Z,2.5
2022-10-11T21:25:30.104Z,350
2022-10-11T21:30:30.089Z,12.5
2022-10-11T21:35:30.108Z,0
2022-10-11T21:40:30.100Z,352.5
2022-10-11T21:45:30.101Z,355
2022-10-11T21:50:30.096Z,5
2022-10-11T21:55:30.096Z,25
2022-10-11T22:00:30.110Z,10
2022-10-11T22:05:30.109Z,0
2022-10-11T22:10:30.113Z,5
2022-10-11T22:15:30.104Z,337.5
2022-10-11T22:20:30.092Z,312.5
2022-10-11T22:25:30.114Z,322.5
2022-10-11T22:30:30.097Z,340
2022-10-11T22:35:31.323Z,340
2022-10-11T22:40:30.102Z,340
2022-10-11T22:45:30.106Z,350
2022-10-11T22:50:30.101Z,10
2022-10-11T22:55:30.119Z,342.5
2022-10-11T23:00:30.098Z,355
2022-10-11T23:05:30.110Z,2.5
2022-10-11T23:10:30.094Z,357.5
2022-10-11T23:15:30.113Z,357.5
2022-10-11T23:20:30.099Z,340
2022-10-11T23:25:30.115Z,355
2022-10-11T23:30:30.098Z,0
2022-10-11T23:35:30.103Z,15
2022-10-11T23:40:30.093Z,5
2022-10-11T23:45:30.104Z,355
2022-10-11T23:50:30.105Z,2.5
2022-10-11T23:55:30.105Z,2.5
